createdAt,value
2022-10-13T00:00:17.495Z,20.70
2022-10-13T00:02:46.676Z,20.60
2022-10-13T00:05:16.472Z,20.60
2022-10-13T00:07:46.313Z,20.60
2022-10-13T00:10:16.264Z,20.60
2022-10-13T00:12:46.080Z,20.50
2022-10-13T00:15:16.253Z,20.50
2022-10-13T00:17:46.149Z,20.60
2022-10-13T00:20:16.240Z,20.60
2022-10-13T00:22:46.092Z,20.60
2022-10-13T00:25:15.969Z,20.60
2022-10-13T00:27:45.734Z,20.60
2022-10-13T00:30:15.621Z,20.50
2022-10-13T00:32:45.538Z,20.50
2022-10-13T00:35:15.358Z,20.50
2022-10-13T00:37:45.195Z,20.50
2022-10-13T00:40:15.275Z,20.50
2022-10-13T00:42:45.792Z,20.50
2022-10-13T00:45:34.974Z,20.50
2022-10-13T00:48:05.171Z,20.60
2022-10-13T00:50:38.021Z,20.60
2022-10-13T00:53:08.855Z,20.70
2022-10-13T00:55:41.046Z,20.70
2022-10-13T00:58:17.472Z,20.80
2022-10-13T01:00:49.625Z,20.80
2022-10-13T01:03:21.972Z,20.80
2022-10-13T01:05:54.857Z,20.90
2022-10-13T01:08:25.219Z,20.90
2022-10-13T01:11:24.418Z,20.90
2022-10-13T01:14:32.948Z,20.90
2022-10-13T01:17:37.217Z,20.90
2022-10-13T01:20:43.599Z,21.00
2022-10-13T01:23:47.204Z,20.90
2022-10-13T01:26:47.387Z,20.90
2022-10-13T01:29:29.186Z,21.00
2022-10-13T01:32:26.121Z,20.90
2022-10-13T01:35:27.152Z,20.90
2022-10-13T01:38:11.377Z,20.90
2022-10-13T01:40:54.265Z,20.90
2022-10-13T01:43:39.967Z,21.00
2022-10-13T01:46:20.982Z,21.10
2022-10-13T01:48:53.773Z,21.20
2022-10-13T01:51:26.069Z,21.30
2022-10-13T01:53:56.070Z,21.30
2022-10-13T01:56:25.961Z,21.50
2022-10-13T01:58:58.638Z,21.60
2022-10-13T02:01:49.506Z,21.80
2022-10-13T02:04:48.815Z,22.00
2022-10-13T02:07:28.282Z,22.20
2022-10-13T02:10:08.166Z,22.40
2022-10-13T02:13:05.259Z,22.50
2022-10-13T02:15:42.738Z,22.60
2022-10-13T02:18:15.483Z,22.70
2022-10-13T02:20:46.221Z,22.80
2022-10-13T02:23:18.557Z,22.90
2022-10-13T02:25:51.753Z,23.00
2022-10-13T02:28:22.186Z,22.90
2022-10-13T02:30:53.136Z,23.10
2022-10-13T02:33:22.937Z,23.20
2022-10-13T02:35:52.857Z,23.30
2022-10-13T02:38:22.652Z,23.40
2022-10-13T02:40:52.623Z,23.40
2022-10-13T02:43:22.479Z,23.50
2022-10-13T02:45:52.307Z,23.30
2022-10-13T02:48:22.157Z,23.40
2022-10-13T02:50:52.000Z,23.50
2022-10-13T02:53:22.168Z,23.60
2022-10-13T02:55:51.948Z,23.80
2022-10-13T02:58:22.030Z,23.80
2022-10-13T03:00:52.002Z,23.90
2022-10-13T03:03:22.050Z,23.90
2022-10-13T03:05:51.218Z,24.00
2022-10-13T03:08:20.990Z,24.00
2022-10-13T03:10:50.974Z,24.00
2022-10-13T03:13:20.179Z,24.10
2022-10-13T03:15:49.950Z,24.00
2022-10-13T03:18:19.838Z,24.10
2022-10-13T03:20:59.008Z,24.10
2022-10-13T03:23:30.162Z,24.20
2022-10-13T03:26:00.067Z,24.20
2022-10-13T03:28:29.647Z,24.20
2022-10-13T03:31:09.584Z,24.20
2022-10-13T03:33:39.552Z,24.20
2022-10-13T03:36:09.319Z,24.20
2022-10-13T03:38:39.297Z,24.20
2022-10-13T03:41:10.512Z,24.20
2022-10-13T03:43:41.106Z,24.20
2022-10-13T03:46:12.753Z,24.30
2022-10-13T03:48:42.952Z,24.20
2022-10-13T03:51:17.368Z,24.20
2022-10-13T03:53:48.466Z,24.40
2022-10-13T03:56:22.120Z,24.50
2022-10-13T03:58:56.847Z,24.70
2022-10-13T04:01:31.376Z,24.80
2022-10-13T04:04:05.007Z,24.80
2022-10-13T04:06:35.418Z,24.90
2022-10-13T04:09:05.946Z,24.80
2022-10-13T04:11:36.545Z,24.90
2022-10-13T04:14:07.150Z,25.00
2022-10-13T04:16:37.339Z,25.10
2022-10-13T04:19:08.683Z,25.20
2022-10-13T04:21:39.138Z,25.20
2022-10-13T04:24:09.995Z,25.30
2022-10-13T04:26:41.440Z,25.30
2022-10-13T04:29:13.845Z,25.30
2022-10-13T04:31:47.656Z,25.40
2022-10-13T04:34:20.136Z,25.40
2022-10-13T04:36:53.875Z,25.50
2022-10-13T04:39:24.236Z,25.50
2022-10-13T04:41:54.618Z,25.60
2022-10-13T04:44:24.901Z,25.80
2022-10-13T04:46:55.265Z,25.70
2022-10-13T04:49:26.589Z,25.70
2022-10-13T04:51:57.052Z,25.70
2022-10-13T04:54:27.449Z,25.60
2022-10-13T04:56:58.451Z,25.60
2022-10-13T04:59:28.945Z,25.50
2022-10-13T05:01:59.486Z,25.60
2022-10-13T05:04:29.853Z,25.50
2022-10-13T05:07:17.038Z,25.70
2022-10-13T05:09:48.805Z,25.70
2022-10-13T05:12:19.597Z,25.80
2022-10-13T05:14:50.092Z,26.00
2022-10-13T05:17:20.715Z,26.10
2022-10-13T05:19:52.283Z,26.10
2022-10-13T05:22:23.112Z,26.30
2022-10-13T05:24:53.623Z,26.40
2022-10-13T05:27:25.286Z,26.30
2022-10-13T05:29:55.462Z,26.40
2022-10-13T05:32:25.723Z,26.40
2022-10-13T05:34:56.045Z,26.50
2022-10-13T05:37:26.566Z,26.50
2022-10-13T05:39:56.813Z,26.50
2022-10-13T05:42:27.674Z,26.50
2022-10-13T05:44:59.158Z,26.50
2022-10-13T05:47:30.414Z,26.40
2022-10-13T05:50:00.792Z,26.40
2022-10-13T05:52:34.492Z,26.40
2022-10-13T05:55:07.589Z,26.40
2022-10-13T05:57:41.429Z,26.50
2022-10-13T06:00:16.259Z,26.70
2022-10-13T06:02:56.332Z,26.70
2022-10-13T06:05:29.833Z,26.40
2022-10-13T06:08:00.357Z,26.20
2022-10-13T06:10:31.668Z,26.10
2022-10-13T06:13:02.116Z,26.20
2022-10-13T06:15:32.424Z,26.30
2022-10-13T06:18:03.135Z,26.30
2022-10-13T06:20:33.487Z,26.50
2022-10-13T06:23:03.930Z,26.70
2022-10-13T06:25:34.516Z,27.00
2022-10-13T06:28:06.265Z,27.00
2022-10-13T06:30:36.762Z,27.00
2022-10-13T06:33:07.002Z,26.90
2022-10-13T06:35:38.449Z,26.90
2022-10-13T06:38:08.984Z,26.90
2022-10-13T06:40:39.577Z,27.10
2022-10-13T06:43:10.077Z,27.10
2022-10-13T06:45:41.400Z,27.10
2022-10-13T06:48:11.709Z,27.10
2022-10-13T06:50:43.014Z,27.20
2022-10-13T06:53:13.497Z,27.40
2022-10-13T06:55:51.559Z,27.40
2022-10-13T06:58:22.757Z,27.80
2022-10-13T07:00:53.259Z,27.70
2022-10-13T07:03:24.172Z,27.80
2022-10-13T07:05:54.750Z,27.80
2022-10-13T07:08:25.135Z,27.90
2022-10-13T07:10:55.412Z,27.90
2022-10-13T07:13:25.932Z,27.60
2022-10-13T07:15:56.260Z,27.50
2022-10-13T07:18:26.538Z,27.40
2022-10-13T07:20:56.854Z,27.30
2022-10-13T07:23:27.737Z,27.20
2022-10-13T07:25:59.278Z,27.40
2022-10-13T07:28:30.201Z,27.40
2022-10-13T07:31:00.619Z,27.30
2022-10-13T07:33:31.018Z,27.40
2022-10-13T07:36:02.680Z,27.40
2022-10-13T07:38:33.113Z,27.50
2022-10-13T07:41:06.228Z,27.60
2022-10-13T07:43:36.973Z,27.70
2022-10-13T07:46:08.472Z,27.80
2022-10-13T07:48:39.381Z,27.90
2022-10-13T07:51:12.090Z,28.00
2022-10-13T07:53:44.894Z,28.00
2022-10-13T07:56:17.133Z,28.00
2022-10-13T07:58:49.872Z,27.90
2022-10-13T08:01:20.741Z,27.90
2022-10-13T08:03:51.285Z,28.00
2022-10-13T08:06:21.771Z,28.20
2022-10-13T08:08:52.675Z,28.30
2022-10-13T08:11:23.269Z,28.40
2022-10-13T08:13:54.950Z,28.30
2022-10-13T08:16:26.174Z,28.20
2022-10-13T08:18:57.065Z,28.10
2022-10-13T08:24:21.610Z,27.80
2022-10-13T08:26:53.102Z,27.60
2022-10-13T08:29:24.297Z,27.60
2022-10-13T08:31:56.500Z,27.70
2022-10-13T08:34:27.620Z,27.80
2022-10-13T08:36:59.317Z,27.80
2022-10-13T08:39:29.833Z,27.80
2022-10-13T08:42:00.853Z,27.70
2022-10-13T08:45:16.111Z,27.70
2022-10-13T08:47:48.275Z,27.60
2022-10-13T08:50:23.160Z,27.60
2022-10-13T08:53:03.922Z,27.50
2022-10-13T08:55:49.858Z,27.50
2022-10-13T08:58:27.107Z,27.50
2022-10-13T09:01:12.864Z,27.50
2022-10-13T09:03:56.293Z,27.50
2022-10-13T09:06:46.448Z,27.20
2022-10-13T09:09:18.162Z,27.10
2022-10-13T09:11:51.025Z,27.20
2022-10-13T09:14:29.473Z,27.10
2022-10-13T09:19:46.277Z,26.90
2022-10-13T09:22:36.808Z,26.90
2022-10-13T09:25:24.619Z,27.00
2022-10-13T09:28:00.525Z,26.90
2022-10-13T09:30:42.867Z,27.00
2022-10-13T09:33:25.430Z,27.00
2022-10-13T09:36:13.500Z,27.10
2022-10-13T09:38:46.575Z,27.10
2022-10-13T09:41:23.918Z,27.20
2022-10-13T09:44:07.605Z,27.20
2022-10-13T09:46:55.408Z,27.30
2022-10-13T09:49:43.545Z,27.20
2022-10-13T09:52:23.420Z,27.30
2022-10-13T09:54:58.363Z,27.30
2022-10-13T09:57:53.160Z,27.40
2022-10-13T10:00:30.195Z,27.50
2022-10-13T10:03:35.960Z,27.30
2022-10-13T10:09:04.202Z,27.10
2022-10-13T10:11:48.815Z,27.10
2022-10-13T10:14:31.489Z,27.10
2022-10-13T10:17:37.726Z,27.10
2022-10-13T10:20:37.376Z,27.30
2022-10-13T10:23:30.369Z,27.20
2022-10-13T10:26:07.168Z,27.20
2022-10-13T10:29:08.542Z,27.10
2022-10-13T10:31:54.540Z,27.00
2022-10-13T10:34:46.147Z,27.10
2022-10-13T10:37:41.071Z,27.10
2022-10-13T10:40:49.897Z,27.00
2022-10-13T10:43:49.034Z,26.90
2022-10-13T10:46:30.328Z,26.90
2022-10-13T10:49:17.196Z,26.80
2022-10-13T10:51:48.071Z,26.80
2022-10-13T10:54:31.641Z,26.70
2022-10-13T10:57:11.377Z,26.70
2022-10-13T10:59:59.865Z,26.60
2022-10-13T11:03:07.199Z,26.50
2022-10-13T11:06:07.888Z,26.40
2022-10-13T11:08:49.628Z,26.20
2022-10-13T11:11:37.523Z,26.20
2022-10-13T11:14:30.802Z,26.00
2022-10-13T11:17:17.813Z,26.00
2022-10-13T11:19:50.321Z,26.00
2022-10-13T11:22:24.457Z,25.90
2022-10-13T11:25:01.127Z,25.80
2022-10-13T11:27:42.391Z,25.80
2022-10-13T11:30:41.810Z,25.80
2022-10-13T11:33:42.197Z,25.70
2022-10-13T11:36:42.362Z,25.50
2022-10-13T11:39:42.838Z,25.30
2022-10-13T11:42:54.336Z,25.30
2022-10-13T11:45:51.573Z,25.20
2022-10-13T11:48:40.800Z,25.10
2022-10-13T11:51:25.343Z,25.00
2022-10-13T11:54:23.890Z,24.90
2022-10-13T11:56:56.736Z,24.70
2022-10-13T11:59:32.628Z,24.70
2022-10-13T12:02:19.204Z,24.60
2022-10-13T12:05:06.812Z,24.50
2022-10-13T12:07:40.728Z,24.50
2022-10-13T12:10:20.326Z,24.40
2022-10-13T12:12:52.514Z,24.40
2022-10-13T12:15:34.141Z,24.40
2022-10-13T12:18:05.306Z,24.40
2022-10-13T12:20:36.089Z,24.30
2022-10-13T12:23:06.330Z,24.30
2022-10-13T12:25:36.260Z,24.30
2022-10-13T12:28:06.413Z,24.30
2022-10-13T12:30:38.652Z,24.20
2022-10-13T12:33:37.553Z,24.20
2022-10-13T12:36:21.138Z,24.20
2022-10-13T12:38:54.786Z,24.20
2022-10-13T12:41:31.841Z,24.10
2022-10-13T12:44:05.639Z,24.10
2022-10-13T12:46:57.160Z,24.10
2022-10-13T12:49:30.948Z,24.00
2022-10-13T12:52:16.430Z,24.10
2022-10-13T12:54:57.539Z,24.00
2022-10-13T12:57:37.678Z,24.00
2022-10-13T13:00:25.364Z,23.90
2022-10-13T13:03:07.605Z,23.90
2022-10-13T13:05:51.568Z,23.80
2022-10-13T13:08:33.430Z,23.80
2022-10-13T13:11:08.655Z,23.80
2022-10-13T13:13:38.420Z,23.80
2022-10-13T13:16:22.080Z,23.80
2022-10-13T13:18:53.135Z,23.70
2022-10-13T13:21:23.548Z,23.70
2022-10-13T13:23:54.222Z,23.70
2022-10-13T13:26:25.941Z,23.70
2022-10-13T13:28:58.748Z,23.60
2022-10-13T13:31:29.088Z,23.70
2022-10-13T13:33:59.070Z,23.70
2022-10-13T13:36:28.656Z,23.70
2022-10-13T13:38:58.657Z,23.60
2022-10-13T13:41:32.507Z,23.50
2022-10-13T13:44:04.690Z,23.60
2022-10-13T13:46:34.689Z,23.60
2022-10-13T13:49:04.540Z,23.60
2022-10-13T13:51:34.444Z,23.50
2022-10-13T13:54:04.326Z,23.50
2022-10-13T13:56:34.422Z,23.50
2022-10-13T13:59:03.650Z,23.50
2022-10-13T14:01:34.025Z,23.50
2022-10-13T14:04:04.728Z,23.50
2022-10-13T14:06:34.666Z,23.40
2022-10-13T14:09:05.882Z,23.40
2022-10-13T14:11:35.691Z,23.40
2022-10-13T14:14:05.575Z,23.40
2022-10-13T14:16:35.469Z,23.40
2022-10-13T14:19:05.610Z,23.40
2022-10-13T14:21:35.360Z,23.30
2022-10-13T14:24:06.039Z,23.30
2022-10-13T14:26:35.800Z,23.30
2022-10-13T14:29:06.288Z,23.30
2022-10-13T14:31:36.255Z,23.30
2022-10-13T14:34:05.413Z,23.30
2022-10-13T14:36:37.202Z,23.20
2022-10-13T14:39:07.038Z,23.30
2022-10-13T14:41:37.678Z,23.30
2022-10-13T14:44:07.978Z,23.20
2022-10-13T14:46:37.737Z,23.20
2022-10-13T14:49:07.650Z,23.20
2022-10-13T14:51:37.473Z,23.20
2022-10-13T14:54:08.587Z,23.10
2022-10-13T14:56:38.518Z,23.20
2022-10-13T14:59:10.699Z,23.10
2022-10-13T15:01:42.969Z,23.20
2022-10-13T15:04:15.150Z,23.20
2022-10-13T15:06:44.920Z,22.70
2022-10-13T15:09:15.728Z,23.20
2022-10-13T15:11:47.872Z,23.10
2022-10-13T15:14:17.714Z,23.20
2022-10-13T15:16:47.605Z,23.20
2022-10-13T15:19:17.433Z,23.20
2022-10-13T15:21:47.511Z,23.20
2022-10-13T15:24:16.815Z,23.10
2022-10-13T15:26:46.632Z,23.10
2022-10-13T15:29:17.683Z,23.10
2022-10-13T15:31:47.456Z,23.10
2022-10-13T15:34:17.366Z,22.90
2022-10-13T15:36:48.144Z,22.90
2022-10-13T15:39:18.160Z,22.90
2022-10-13T15:41:48.203Z,22.90
2022-10-13T15:44:21.362Z,22.80
2022-10-13T15:47:07.040Z,22.80
2022-10-13T15:49:39.399Z,22.90
2022-10-13T15:52:09.219Z,22.90
2022-10-13T15:54:39.144Z,22.90
2022-10-13T15:57:09.635Z,22.80
2022-10-13T15:59:39.578Z,22.90
2022-10-13T16:02:09.479Z,22.90
2022-10-13T16:04:39.349Z,22.90
2022-10-13T16:07:09.127Z,22.90
2022-10-13T16:09:39.286Z,22.90
2022-10-13T16:12:14.137Z,22.90
2022-10-13T16:14:44.002Z,22.90
2022-10-13T16:17:13.786Z,22.90
2022-10-13T16:19:43.660Z,22.80
2022-10-13T16:22:13.662Z,22.90
2022-10-13T16:24:43.845Z,22.80
2022-10-13T16:27:13.068Z,22.80
2022-10-13T16:29:44.137Z,22.80
2022-10-13T16:32:14.245Z,22.80
2022-10-13T16:34:43.513Z,22.80
2022-10-13T16:37:13.353Z,22.80
2022-10-13T16:39:46.508Z,22.80
2022-10-13T16:42:18.996Z,22.70
2022-10-13T16:44:49.272Z,22.70
2022-10-13T16:47:19.269Z,22.60
2022-10-13T16:49:49.061Z,22.60
2022-10-13T16:52:18.933Z,22.50
2022-10-13T16:54:49.390Z,22.50
2022-10-13T16:57:19.438Z,22.60
2022-10-13T16:59:49.463Z,22.60
2022-10-13T17:02:19.425Z,22.60
2022-10-13T17:04:49.307Z,22.60
2022-10-13T17:07:19.423Z,22.50
2022-10-13T17:09:49.994Z,22.50
2022-10-13T17:12:19.949Z,22.50
2022-10-13T17:14:51.139Z,22.50
2022-10-13T17:17:21.285Z,22.60
2022-10-13T17:19:51.929Z,22.60
2022-10-13T17:22:21.702Z,22.60
2022-10-13T17:24:51.599Z,22.50
2022-10-13T17:27:21.598Z,22.50
2022-10-13T17:29:54.348Z,22.60
2022-10-13T17:32:25.273Z,22.60
2022-10-13T17:34:55.368Z,22.60
2022-10-13T17:37:25.043Z,22.60
2022-10-13T17:39:55.180Z,22.60
2022-10-13T17:42:25.006Z,22.60
2022-10-13T17:44:54.773Z,22.60
2022-10-13T17:47:24.722Z,22.60
2022-10-13T17:49:54.544Z,22.60
2022-10-13T17:52:24.424Z,22.60
2022-10-13T17:54:54.476Z,22.50
2022-10-13T17:57:24.647Z,22.60
2022-10-13T17:59:54.866Z,22.60
2022-10-13T18:02:24.299Z,22.60
2022-10-13T18:04:54.129Z,22.60
2022-10-13T18:07:23.990Z,22.60
2022-10-13T18:09:55.097Z,22.60
2022-10-13T18:12:24.995Z,22.50
2022-10-13T18:14:54.750Z,22.50
2022-10-13T18:17:24.763Z,22.50
2022-10-13T18:19:55.386Z,22.50
2022-10-13T18:22:25.150Z,22.40
2022-10-13T18:24:57.252Z,22.50
2022-10-13T18:27:27.252Z,22.40
2022-10-13T18:29:57.211Z,22.40
2022-10-13T18:32:27.213Z,22.40
2022-10-13T18:34:58.732Z,22.40
2022-10-13T18:37:28.576Z,22.40
2022-10-13T18:39:58.401Z,22.40
2022-10-13T18:42:29.336Z,22.40
2022-10-13T18:44:59.211Z,22.40
2022-10-13T18:47:35.705Z,22.30
2022-10-13T18:50:06.329Z,22.30
2022-10-13T18:52:36.159Z,22.30
2022-10-13T18:55:06.253Z,22.20
2022-10-13T18:57:36.774Z,22.20
2022-10-13T19:00:08.829Z,22.20
2022-10-13T19:02:38.772Z,22.30
2022-10-13T19:05:09.007Z,22.30
2022-10-13T19:07:39.273Z,22.30
2022-10-13T19:10:09.790Z,22.20
2022-10-13T19:12:39.761Z,22.20
2022-10-13T19:15:10.063Z,22.10
2022-10-13T19:17:39.999Z,22.10
2022-10-13T19:20:10.127Z,22.10
2022-10-13T19:22:39.531Z,22.10
2022-10-13T19:25:10.002Z,22.10
2022-10-13T19:27:39.884Z,22.10
2022-10-13T19:30:10.212Z,22.10
2022-10-13T19:32:42.224Z,22.10
2022-10-13T19:35:12.125Z,22.10
2022-10-13T19:37:42.545Z,22.20
2022-10-13T19:40:12.551Z,22.20
2022-10-13T19:42:42.264Z,22.10
2022-10-13T19:45:12.502Z,22.10
2022-10-13T19:47:42.334Z,22.10
2022-10-13T19:50:12.217Z,22.10
2022-10-13T19:52:43.160Z,22.10
2022-10-13T19:55:13.098Z,22.10
2022-10-13T19:57:42.856Z,22.00
2022-10-13T20:00:13.224Z,22.00
2022-10-13T20:02:43.018Z,21.90
2022-10-13T20:05:12.963Z,22.00
2022-10-13T20:07:42.857Z,21.90
2022-10-13T20:10:12.670Z,21.80
2022-10-13T20:12:42.532Z,21.70
2022-10-13T20:15:12.980Z,21.60
2022-10-13T20:17:42.842Z,21.60
2022-10-13T20:20:12.963Z,21.60
2022-10-13T20:22:42.314Z,21.50
2022-10-13T20:25:14.281Z,21.50
2022-10-13T20:27:44.996Z,21.50
2022-10-13T20:30:15.195Z,21.60
2022-10-13T20:32:45.035Z,21.50
2022-10-13T20:35:15.133Z,21.40
2022-10-13T20:37:44.956Z,21.40
2022-10-13T20:40:15.269Z,21.40
2022-10-13T20:42:44.968Z,21.40
2022-10-13T20:45:14.744Z,21.30
2022-10-13T20:47:44.552Z,21.30
2022-10-13T20:50:14.670Z,21.30
2022-10-13T20:52:43.878Z,21.30
2022-10-13T20:55:13.784Z,21.30
2022-10-13T20:57:43.554Z,21.30
2022-10-13T21:00:13.779Z,21.20
2022-10-13T21:02:43.679Z,21.20
2022-10-13T21:05:13.510Z,21.20
2022-10-13T21:07:43.800Z,21.20
2022-10-13T21:10:13.606Z,21.20
2022-10-13T21:12:43.439Z,21.20
2022-10-13T21:15:13.421Z,21.20
2022-10-13T21:17:43.627Z,21.20
2022-10-13T21:20:12.828Z,21.20
2022-10-13T21:22:42.545Z,21.20
2022-10-13T21:25:12.457Z,21.20
2022-10-13T21:27:42.238Z,21.20
2022-10-13T21:30:12.708Z,21.20
2022-10-13T21:32:42.610Z,21.20
2022-10-13T21:35:12.741Z,21.20
2022-10-13T21:37:41.947Z,21.20
2022-10-13T21:40:12.225Z,21.20
2022-10-13T21:42:42.170Z,21.30
2022-10-13T21:45:13.213Z,21.30
2022-10-13T21:47:42.860Z,21.20
2022-10-13T21:50:12.839Z,21.20
2022-10-13T21:52:42.738Z,21.20
2022-10-13T21:55:12.539Z,21.20
2022-10-13T21:57:42.288Z,21.10
2022-10-13T22:00:12.825Z,21.10
2022-10-13T22:02:42.909Z,21.20
2022-10-13T22:05:12.831Z,21.10
2022-10-13T22:07:42.870Z,21.20
2022-10-13T22:10:12.725Z,21.20
2022-10-13T22:12:42.896Z,21.20
2022-10-13T22:15:12.972Z,21.10
2022-10-13T22:17:42.711Z,21.00
2022-10-13T22:20:12.552Z,21.00
2022-10-13T22:22:42.412Z,21.00
2022-10-13T22:25:12.317Z,21.00
2022-10-13T22:27:42.649Z,20.90
2022-10-13T22:30:13.024Z,20.90
2022-10-13T22:32:42.937Z,20.90
2022-10-13T22:35:12.790Z,20.90
2022-10-13T22:37:42.598Z,20.90
2022-10-13T22:40:12.985Z,20.80
2022-10-13T22:42:42.822Z,20.80
2022-10-13T22:45:13.150Z,20.80
2022-10-13T22:47:43.021Z,20.80
2022-10-13T22:50:12.924Z,20.80
2022-10-13T22:52:43.809Z,20.80
2022-10-13T22:55:13.583Z,20.70
2022-10-13T22:57:43.550Z,20.70
2022-10-13T23:00:14.832Z,20.60
2022-10-13T23:02:44.650Z,20.60
2022-10-13T23:05:14.868Z,20.60
2022-10-13T23:07:44.064Z,20.60
2022-10-13T23:10:13.802Z,20.50
2022-10-13T23:12:43.592Z,20.50
2022-10-13T23:15:13.755Z,20.50
2022-10-13T23:17:43.505Z,20.50
2022-10-13T23:20:13.556Z,20.50
2022-10-13T23:22:43.405Z,20.50
2022-10-13T23:25:13.226Z,20.50
2022-10-13T23:27:43.077Z,20.50
2022-10-13T23:30:13.527Z,20.50
2022-10-13T23:32:43.308Z,20.50
2022-10-13T23:35:13.307Z,20.60
2022-10-13T23:37:43.210Z,20.60
2022-10-13T23:40:13.649Z,20.60
2022-10-13T23:42:43.769Z,20.70
2022-10-13T23:45:13.714Z,20.70
2022-10-13T23:47:43.514Z,20.80
2022-10-13T23:50:13.577Z,20.80
2022-10-13T23:52:43.313Z,20.80
2022-10-13T23:55:13.307Z,20.80
2022-10-13T23:57:43.266Z,20.80
